Time;durP1;ratioP1;P1;durP2;ratioP2;P2;SDS_P1;SDS_P2;PMS_P1;PMS_P2;Temp;Humidity;BMP_temperature;BMP_pressure;BME280_temperature;BME280_humidity;BME280_pressure;Samples;Min_cycle;Max_cycle;Signal;HPM_P1;HPM_P2
2023/03/15 00:00:53;;;;;;;4.45;2.10;;;4.60;98.20;;;;;;5077437;28;20508;-72
2023/03/15 00:03:19;;;;;;;4.78;2.40;;;4.60;97.90;;;;;;5086106;28;20070;-72
2023/03/15 00:05:46;;;;;;;4.70;2.20;;;4.40;97.90;;;;;;5079884;28;20024;-72
2023/03/15 00:08:13;;;;;;;6.80;2.33;;;4.40;97.90;;;;;;5082358;28;20233;-72
2023/03/15 00:10:42;;;;;;;4.28;1.92;;;4.40;97.90;;;;;;5085333;28;20039;-72
2023/03/15 00:13:09;;;;;;;7.70;1.90;;;4.30;98.00;;;;;;5079242;28;20048;-71
2023/03/15 00:15:35;;;;;;;5.22;2.33;;;4.40;98.10;;;;;;5090823;28;20020;-71
2023/03/15 00:18:02;;;;;;;3.75;1.65;;;4.30;98.30;;;;;;5082315;28;20023;-71
2023/03/15 00:20:28;;;;;;;5.32;1.48;;;4.20;98.50;;;;;;5071769;28;20024;-72
2023/03/15 00:22:54;;;;;;;2.63;1.48;;;4.20;98.60;;;;;;5082529;28;20028;-73
2023/03/15 00:25:19;;;;;;;3.08;1.40;;;4.10;98.80;;;;;;5080766;28;20035;-73
2023/03/15 00:27:45;;;;;;;4.53;2.17;;;4.10;99.00;;;;;;5079370;28;20024;-73
2023/03/15 00:30:11;;;;;;;5.13;1.65;;;4.20;99.00;;;;;;5091362;28;20024;-74
2023/03/15 00:32:37;;;;;;;2.55;1.40;;;4.20;99.30;;;;;;5080728;28;20056;-73
2023/03/15 00:35:03;;;;;;;3.42;1.92;;;4.20;99.10;;;;;;5089069;28;20472;-73
2023/03/15 00:37:30;;;;;;;5.45;1.98;;;4.10;99.10;;;;;;5081114;28;20032;-73
2023/03/15 00:39:55;;;;;;;3.10;1.73;;;4.20;99.10;;;;;;5086346;28;20036;-73
2023/03/15 00:42:26;;;;;;;6.30;2.85;;;4.20;99.10;;;;;;5086061;28;20028;-71
2023/03/15 00:44:54;;;;;;;5.05;2.60;;;4.20;99.10;;;;;;5084470;28;20027;-73
2023/03/15 00:47:20;;;;;;;3.95;2.35;;;4.20;99.20;;;;;;5086199;28;20028;-72
2023/03/15 00:49:46;;;;;;;5.88;2.90;;;4.30;99.30;;;;;;5080298;28;20028;-73
2023/03/15 00:52:11;;;;;;;6.20;3.70;;;4.30;99.20;;;;;;5083294;28;20090;-72
2023/03/15 00:54:37;;;;;;;6.55;3.45;;;4.40;99.10;;;;;;5081981;28;20024;-72
2023/03/15 00:57:03;;;;;;;5.38;3.30;;;4.40;99.20;;;;;;5082224;28;20143;-73
2023/03/15 00:59:34;;;;;;;5.80;3.80;;;4.30;99.20;;;;;;5082197;28;20040;-74
2023/03/15 01:02:01;;;;;;;6.43;3.95;;;4.30;99.40;;;;;;5080238;28;20016;-73
2023/03/15 01:04:27;;;;;;;5.57;4.15;;;4.30;99.50;;;;;;5076671;28;20055;-73
2023/03/15 01:06:53;;;;;;;7.20;4.13;;;4.40;99.60;;;;;;5088730;28;20075;-73
2023/03/15 01:09:19;;;;;;;5.90;4.05;;;4.40;99.60;;;;;;5077733;28;20067;-72
2023/03/15 01:11:46;;;;;;;9.32;4.10;;;4.50;99.50;;;;;;5090839;28;20107;-72
2023/03/15 01:14:11;;;;;;;9.63;4.75;;;4.50;99.40;;;;;;5078570;28;20028;-73
2023/03/15 01:16:37;;;;;;;7.07;4.50;;;4.50;99.40;;;;;;5089301;28;20016;-73
2023/03/15 01:19:03;;;;;;;7.00;5.05;;;4.60;99.40;;;;;;5086244;28;20024;-73
2023/03/15 01:21:28;;;;;;;9.32;5.47;;;4.60;99.40;;;;;;5073868;28;20105;-74
2023/03/15 01:23:54;;;;;;;7.43;4.85;;;4.60;99.40;;;;;;5074249;28;20032;-73
2023/03/15 01:26:20;;;;;;;9.77;5.13;;;4.60;99.30;;;;;;5082656;28;20031;-73
2023/03/15 01:28:46;;;;;;;9.10;5.47;;;4.60;99.20;;;;;;5086063;28;20083;-74
2023/03/15 01:31:21;;;;;;;7.80;5.68;;;4.70;99.20;;;;;;5081753;28;20472;-73
2023/03/15 01:33:47;;;;;;;7.95;5.43;;;4.60;99.20;;;;;;5086947;28;20024;-73
2023/03/15 01:36:13;;;;;;;9.32;5.53;;;4.60;99.20;;;;;;5080144;28;20622;-74
2023/03/15 01:38:39;;;;;;;11.90;6.00;;;4.60;99.40;;;;;;5086849;28;20044;-73
2023/03/15 01:41:05;;;;;;;10.30;6.07;;;4.70;99.50;;;;;;5078749;28;20078;-74
2023/03/15 01:43:32;;;;;;;10.90;6.25;;;4.70;99.50;;;;;;5088505;28;20024;-73
2023/03/15 01:46:05;;;;;;;11.20;5.95;;;4.70;99.40;;;;;;5077554;28;20023;-74
2023/03/15 01:48:34;;;;;;;10.15;5.07;;;4.80;99.60;;;;;;5088627;28;20020;-73
2023/03/15 01:51:03;;;;;;;8.10;4.63;;;4.80;99.50;;;;;;5077426;28;20024;-73
2023/03/15 01:53:30;;;;;;;10.50;5.18;;;4.80;99.40;;;;;;5072219;28;20027;-73
2023/03/15 01:55:57;;;;;;;8.63;5.13;;;4.80;99.40;;;;;;5083128;28;20072;-73
2023/03/15 01:58:25;;;;;;;15.07;5.53;;;4.80;99.40;;;;;;5088403;28;20032;-73
2023/03/15 02:00:52;;;;;;;12.70;5.72;;;4.80;99.40;;;;;;5064437;28;20017;-73
2023/03/15 02:03:22;;;;;;;12.95;7.30;;;4.70;99.50;;;;;;5074097;28;20031;-74
2023/03/15 02:05:56;;;;;;;11.18;5.63;;;4.70;99.50;;;;;;5078810;28;20027;-74
2023/03/15 02:08:25;;;;;;;17.88;7.90;;;4.70;99.50;;;;;;5088363;28;20056;-73
2023/03/15 02:10:53;;;;;;;16.13;6.78;;;4.70;99.70;;;;;;5079863;28;20032;-73
2023/03/15 02:13:22;;;;;;;13.25;6.57;;;4.70;99.70;;;;;;5087899;28;20020;-73
2023/03/15 02:15:49;;;;;;;12.98;6.20;;;4.60;99.70;;;;;;5084766;28;20024;-74
2023/03/15 02:18:15;;;;;;;26.55;9.55;;;4.60;99.80;;;;;;5073581;28;20021;-74
2023/03/15 02:21:00;;;;;;;22.38;8.77;;;4.70;99.90;;;;;;5073471;28;20023;-72
2023/03/15 02:23:27;;;;;;;29.52;13.02;;;4.60;99.90;;;;;;5084048;28;20028;-73
2023/03/15 02:26:16;;;;;;;47.05;17.10;;;4.60;99.90;;;;;;5083806;28;20078;-73
2023/03/15 02:28:43;;;;;;;15.60;7.93;;;4.60;99.90;;;;;;5072306;28;20047;-74
2023/03/15 02:31:10;;;;;;;16.80;8.20;;;4.60;99.90;;;;;;5078251;28;20036;-73
2023/03/15 02:33:40;;;;;;;18.65;8.77;;;4.60;99.80;;;;;;5075140;28;20479;-73
2023/03/15 02:36:28;;;;;;;17.58;9.25;;;4.50;99.90;;;;;;5069392;28;20020;-73
2023/03/15 02:38:55;;;;;;;27.33;12.35;;;4.50;99.90;;;;;;5082461;28;20078;-73
2023/03/15 02:41:29;;;;;;;19.60;8.77;;;4.50;99.80;;;;;;5080867;28;20112;-73
2023/03/15 02:44:02;;;;;;;29.88;12.90;;;4.40;99.90;;;;;;5082499;28;20062;-73
2023/03/15 02:46:28;;;;;;;40.85;14.20;;;4.40;99.90;;;;;;5083859;28;20475;-73
2023/03/15 02:48:54;;;;;;;23.90;11.18;;;4.40;99.90;;;;;;5081466;28;20534;-74
2023/03/15 02:51:23;;;;;;;48.08;16.88;;;4.30;99.90;;;;;;5085082;28;20111;-74
2023/03/15 02:53:48;;;;;;;23.27;11.43;;;4.40;99.90;;;;;;5078422;28;20561;-74
2023/03/15 02:56:15;;;;;;;23.58;11.80;;;4.40;99.90;;;;;;5068498;28;20103;-73
2023/03/15 02:58:44;;;;;;;45.50;18.35;;;4.40;99.90;;;;;;5080330;28;20601;-73
2023/03/15 03:01:13;;;;;;;24.08;12.48;;;4.40;99.90;;;;;;5086846;28;20102;-73
2023/03/15 03:03:40;;;;;;;29.88;13.07;;;4.30;99.90;;;;;;5084363;28;20036;-73
2023/03/15 03:06:07;;;;;;;15.20;9.60;;;4.30;99.90;;;;;;5074123;28;20075;-73
2023/03/15 03:08:33;;;;;;;30.40;13.85;;;4.20;99.90;;;;;;5074360;28;20549;-73
2023/03/15 03:10:58;;;;;;;15.57;10.25;;;4.20;99.90;;;;;;5088812;28;20029;-72
2023/03/15 03:13:24;;;;;;;21.17;11.35;;;4.20;99.90;;;;;;5076451;28;20028;-73
2023/03/15 03:15:57;;;;;;;40.25;18.05;;;4.20;99.90;;;;;;5087328;28;20028;-72
2023/03/15 03:18:23;;;;;;;32.30;14.23;;;4.20;99.90;;;;;;5083185;28;20115;-73
2023/03/15 03:20:49;;;;;;;22.10;11.73;;;4.20;99.90;;;;;;5074838;28;20024;-72
2023/03/15 03:23:15;;;;;;;22.08;11.85;;;4.20;99.90;;;;;;5084271;28;20073;-73
2023/03/15 03:25:40;;;;;;;26.45;13.57;;;4.30;99.90;;;;;;5071497;28;20103;-73
2023/03/15 03:28:06;;;;;;;27.50;13.20;;;4.30;99.90;;;;;;5080596;28;20028;-73
2023/03/15 03:30:34;;;;;;;15.68;10.45;;;4.30;99.90;;;;;;5077100;28;20372;-72
2023/03/15 03:33:00;;;;;;;38.50;16.33;;;4.30;99.80;;;;;;5077324;28;20032;-72
2023/03/15 03:35:25;;;;;;;27.90;12.63;;;4.30;99.80;;;;;;5091750;28;20097;-73
2023/03/15 03:37:52;;;;;;;43.22;15.07;;;4.30;99.70;;;;;;5086425;28;20031;-73
2023/03/15 03:40:18;;;;;;;14.18;9.75;;;4.30;99.70;;;;;;5082497;28;20596;-73
2023/03/15 03:42:43;;;;;;;22.15;12.45;;;4.40;99.70;;;;;;5079814;28;20031;-73
2023/03/15 03:45:09;;;;;;;16.00;10.27;;;4.30;99.70;;;;;;5074331;28;20102;-73
2023/03/15 03:47:35;;;;;;;12.73;9.77;;;4.30;99.60;;;;;;5072746;28;20048;-74
2023/03/15 03:50:01;;;;;;;15.02;10.23;;;4.40;99.50;;;;;;5077167;28;20086;-72
2023/03/15 03:52:26;;;;;;;18.17;10.05;;;4.30;99.50;;;;;;5092564;28;20049;-73
2023/03/15 03:54:52;;;;;;;17.52;9.68;;;4.40;99.40;;;;;;5085909;28;20851;-73
2023/03/15 03:57:17;;;;;;;13.82;9.13;;;4.40;99.30;;;;;;5089313;28;20068;-73
2023/03/15 03:59:43;;;;;;;14.65;9.43;;;4.30;99.40;;;;;;5078554;28;20089;-74
2023/03/15 04:02:09;;;;;;;12.70;9.07;;;4.30;99.60;;;;;;5079816;28;20025;-72
2023/03/15 04:04:35;;;;;;;14.55;9.13;;;4.20;99.60;;;;;;5075243;28;20091;-72
2023/03/15 04:07:00;;;;;;;16.38;10.18;;;4.20;99.70;;;;;;5088647;28;20496;-72
2023/03/15 04:09:26;;;;;;;12.52;10.07;;;4.20;99.60;;;;;;5086501;28;20046;-72
2023/03/15 04:11:52;;;;;;;13.85;9.98;;;4.20;99.60;;;;;;5077965;28;20165;-73
2023/03/15 04:14:17;;;;;;;13.07;10.40;;;4.20;99.50;;;;;;5076424;28;20046;-72
2023/03/15 04:16:43;;;;;;;15.07;10.73;;;4.20;99.50;;;;;;5082745;28;20028;-73
2023/03/15 04:19:11;;;;;;;14.55;10.18;;;4.20;99.60;;;;;;5090510;28;20039;-72
2023/03/15 04:21:37;;;;;;;15.02;10.00;;;4.20;99.60;;;;;;5080308;28;20027;-73
2023/03/15 04:24:03;;;;;;;15.82;10.10;;;4.20;99.60;;;;;;5088439;28;20020;-73
2023/03/15 04:26:28;;;;;;;16.08;10.25;;;4.20;99.50;;;;;;5080209;28;20020;-72
2023/03/15 04:28:56;;;;;;;17.73;9.77;;;4.20;99.80;;;;;;5090391;28;20099;-73
2023/03/15 04:31:27;;;;;;;14.55;10.57;;;4.20;99.50;;;;;;5078548;28;20066;-73
2023/03/15 04:33:54;;;;;;;15.02;10.32;;;4.20;99.50;;;;;;5091930;28;20029;-74
2023/03/15 04:36:21;;;;;;;17.50;10.35;;;4.20;99.50;;;;;;5085737;28;20032;-73
2023/03/15 04:38:47;;;;;;;17.13;11.98;;;4.30;99.50;;;;;;5090038;28;20124;-74
2023/03/15 04:41:14;;;;;;;19.10;11.10;;;4.30;99.50;;;;;;5086475;28;20131;-73
2023/03/15 04:43:40;;;;;;;15.93;11.32;;;4.30;99.50;;;;;;5091301;28;20555;-72
2023/03/15 04:46:06;;;;;;;17.20;9.73;;;4.30;99.50;;;;;;5079881;28;20020;-73
2023/03/15 04:48:32;;;;;;;15.68;9.63;;;4.40;99.40;;;;;;5088651;28;20028;-73
2023/03/15 04:50:58;;;;;;;20.90;12.20;;;4.40;99.20;;;;;;5089004;28;20458;-73
2023/03/15 04:53:23;;;;;;;18.75;11.45;;;4.40;99.10;;;;;;5085991;28;20468;-72
2023/03/15 04:55:49;;;;;;;14.43;10.20;;;4.40;99.00;;;;;;5085895;28;20025;-73
2023/03/15 04:58:15;;;;;;;16.33;10.95;;;4.40;99.00;;;;;;5081933;28;20103;-73
2023/03/15 05:00:41;;;;;;;20.80;10.93;;;4.30;99.00;;;;;;5088451;28;20027;-72
2023/03/15 05:03:06;;;;;;;16.27;10.07;;;4.40;98.90;;;;;;5080117;28;20078;-73
2023/03/15 05:05:32;;;;;;;17.83;11.45;;;4.40;98.80;;;;;;5071914;28;20070;-73
2023/03/15 05:07:58;;;;;;;17.58;11.27;;;4.40;98.80;;;;;;5089092;28;20032;-72
2023/03/15 05:10:24;;;;;;;23.52;11.07;;;4.40;98.80;;;;;;5089024;28;20089;-73
2023/03/15 05:12:50;;;;;;;18.35;10.82;;;4.40;98.60;;;;;;5082523;28;20020;-73
2023/03/15 05:15:17;;;;;;;20.75;11.30;;;4.40;98.50;;;;;;5070359;28;20020;-73
2023/03/15 05:17:45;;;;;;;22.67;12.05;;;4.40;98.40;;;;;;5082922;28;20020;-73
2023/03/15 05:20:14;;;;;;;18.75;11.48;;;4.50;98.30;;;;;;5079521;28;20039;-73
2023/03/15 05:22:40;;;;;;;18.23;11.10;;;4.50;98.20;;;;;;5076955;28;20471;-73
2023/03/15 05:25:07;;;;;;;18.90;11.40;;;4.40;98.20;;;;;;5090625;28;20020;-72
2023/03/15 05:27:33;;;;;;;19.83;10.60;;;4.40;98.20;;;;;;5079490;28;20035;-73
2023/03/15 05:30:01;;;;;;;20.38;11.27;;;4.40;98.20;;;;;;5087868;28;20028;-73
2023/03/15 05:32:27;;;;;;;19.15;11.55;;;4.40;98.10;;;;;;5084512;28;20039;-73
2023/03/15 05:34:53;;;;;;;17.33;11.90;;;4.40;98.10;;;;;;5074348;28;20032;-73
2023/03/15 05:37:23;;;;;;;17.92;12.00;;;4.40;98.10;;;;;;5083752;28;20036;-73
2023/03/15 05:39:48;;;;;;;18.88;11.85;;;4.40;97.90;;;;;;5083914;28;20131;-73
2023/03/15 05:42:20;;;;;;;18.63;11.75;;;4.40;97.80;;;;;;5084829;28;20099;-73
2023/03/15 05:44:47;;;;;;;17.75;11.93;;;4.40;97.70;;;;;;5082204;28;20020;-73
2023/03/15 05:47:12;;;;;;;20.40;12.63;;;4.30;97.70;;;;;;5085260;28;20024;-72
2023/03/15 05:49:38;;;;;;;21.52;12.45;;;4.30;97.80;;;;;;5086592;28;20092;-72
2023/03/15 05:52:04;;;;;;;17.88;12.52;;;4.30;97.80;;;;;;5087230;28;20092;-74
2023/03/15 05:54:30;;;;;;;21.00;13.13;;;4.30;97.90;;;;;;5080962;28;20389;-73
2023/03/15 05:56:55;;;;;;;22.42;13.27;;;4.20;97.80;;;;;;5070342;28;20021;-73
2023/03/15 05:59:21;;;;;;;21.15;13.60;;;4.20;97.60;;;;;;5081482;28;20055;-73
2023/03/15 06:01:49;;;;;;;20.55;12.57;;;4.20;97.60;;;;;;5077779;28;20023;-72
2023/03/15 06:04:14;;;;;;;21.17;14.60;;;4.20;97.90;;;;;;5076916;28;20536;-72
2023/03/15 06:06:40;;;;;;;20.10;13.95;;;4.10;97.60;;;;;;5069650;28;20044;-72
2023/03/15 06:09:06;;;;;;;20.10;13.60;;;4.10;97.80;;;;;;5079576;28;20048;-73
2023/03/15 06:11:31;;;;;;;19.77;13.32;;;4.10;97.90;;;;;;5089368;28;20115;-74
2023/03/15 06:13:57;;;;;;;18.67;13.20;;;4.00;98.00;;;;;;5077834;28;20452;-73
2023/03/15 06:16:22;;;;;;;18.90;14.10;;;4.00;98.10;;;;;;5085553;28;20031;-73
2023/03/15 06:18:48;;;;;;;25.33;15.50;;;4.00;98.10;;;;;;5082335;28;20039;-73
2023/03/15 06:21:14;;;;;;;21.95;14.57;;;4.00;98.20;;;;;;5074532;28;20528;-73
2023/03/15 06:23:39;;;;;;;22.25;15.25;;;4.00;98.10;;;;;;5074037;28;20032;-73
2023/03/15 06:26:05;;;;;;;17.45;9.45;;;4.00;98.00;;;;;;5078977;28;20395;-72
2023/03/15 06:28:30;;;;;;;21.05;11.98;;;3.90;98.40;;;;;;5074355;28;20043;-72
2023/03/15 06:30:56;;;;;;;21.30;11.00;;;3.80;98.80;;;;;;5079378;28;20016;-74
2023/03/15 06:33:23;;;;;;;15.80;10.07;;;3.90;99.00;;;;;;5089064;28;20024;-72
2023/03/15 06:35:49;;;;;;;19.48;10.23;;;3.90;99.00;;;;;;5083945;28;20086;-72
2023/03/15 06:38:14;;;;;;;18.67;10.32;;;4.00;99.10;;;;;;5070561;28;20029;-74
2023/03/15 06:40:40;;;;;;;20.63;11.55;;;4.00;99.40;;;;;;5083901;28;20036;-73
2023/03/15 06:43:06;;;;;;;15.73;9.70;;;4.10;99.60;;;;;;5074135;28;20401;-73
2023/03/15 06:45:32;;;;;;;22.63;9.80;;;4.20;99.60;;;;;;5076047;28;20530;-72
2023/03/15 06:47:58;;;;;;;14.55;8.90;;;4.30;99.40;;;;;;5093003;28;20474;-72
2023/03/15 06:50:24;;;;;;;18.52;9.45;;;4.40;99.20;;;;;;5082007;28;20025;-72
2023/03/15 06:52:49;;;;;;;18.40;8.68;;;4.50;99.00;;;;;;5092515;28;20035;-72
2023/03/15 06:55:17;;;;;;;15.73;8.07;;;4.60;98.90;;;;;;5090551;28;20052;-71
2023/03/15 06:57:44;;;;;;;13.10;7.97;;;4.60;98.90;;;;;;5075735;28;20028;-72
2023/03/15 07:00:10;;;;;;;14.65;7.10;;;4.70;98.90;;;;;;5077977;28;20036;-72
2023/03/15 07:02:36;;;;;;;14.15;7.68;;;4.70;98.80;;;;;;5086612;28;20077;-74
2023/03/15 07:05:03;;;;;;;18.08;7.57;;;4.90;98.80;;;;;;5078643;28;20028;-72
2023/03/15 07:07:29;;;;;;;11.05;6.45;;;4.90;98.50;;;;;;5082156;28;20036;-73
2023/03/15 07:09:55;;;;;;;12.75;6.25;;;5.00;98.40;;;;;;5091909;28;20044;-74
2023/03/15 07:12:20;;;;;;;11.02;5.93;;;5.20;98.20;;;;;;5071969;28;20029;-74
2023/03/15 07:14:46;;;;;;;13.40;7.03;;;5.30;97.80;;;;;;5074516;28;20077;-73
2023/03/15 07:17:12;;;;;;;17.17;7.18;;;5.30;98.00;;;;;;5091118;28;20488;-74
2023/03/15 07:19:37;;;;;;;13.05;6.80;;;5.40;97.70;;;;;;5091530;28;20110;-71
2023/03/15 07:22:03;;;;;;;13.65;6.97;;;5.60;97.50;;;;;;5087251;28;20020;-74
2023/03/15 07:24:29;;;;;;;11.75;5.47;;;5.70;97.80;;;;;;5089945;28;20176;-73
2023/03/15 07:26:55;;;;;;;11.73;5.35;;;5.90;97.70;;;;;;5077624;28;20036;-73
2023/03/15 07:29:22;;;;;;;10.27;5.35;;;6.10;96.80;;;;;;5091099;28;20024;-73
2023/03/15 07:31:48;;;;;;;12.35;5.75;;;6.20;96.70;;;;;;5079180;28;20132;-73
2023/03/15 07:34:15;;;;;;;9.75;4.95;;;6.30;96.80;;;;;;5087322;28;20020;-74
2023/03/15 07:36:40;;;;;;;10.70;4.70;;;6.40;96.20;;;;;;5079408;28;20028;-73
2023/03/15 07:39:06;;;;;;;9.10;5.03;;;6.60;96.10;;;;;;5087076;28;20036;-74
2023/03/15 07:41:32;;;;;;;8.45;3.72;;;6.70;96.30;;;;;;5084150;28;20020;-74
2023/03/15 07:43:57;;;;;;;11.85;3.88;;;6.90;96.10;;;;;;5085841;28;20028;-73
2023/03/15 07:46:23;;;;;;;9.00;3.70;;;7.00;95.20;;;;;;5088131;28;20020;-72
2023/03/15 07:48:48;;;;;;;7.68;3.08;;;7.10;94.40;;;;;;5082187;28;20036;-74
2023/03/15 07:51:14;;;;;;;11.30;4.18;;;7.20;94.50;;;;;;5076824;28;20058;-73
2023/03/15 07:53:40;;;;;;;9.85;4.47;;;7.20;94.70;;;;;;5083982;28;20623;-72
2023/03/15 07:56:06;;;;;;;11.68;4.38;;;7.30;94.40;;;;;;5091133;28;20025;-73
2023/03/15 07:58:32;;;;;;;12.65;5.30;;;7.40;94.30;;;;;;5079142;28;20036;-73
2023/03/15 08:00:58;;;;;;;7.97;3.90;;;7.60;94.20;;;;;;5078878;28;20810;-73
2023/03/15 08:03:25;;;;;;;13.77;5.50;;;7.70;93.80;;;;;;5080990;28;20027;-73
2023/03/15 08:05:51;;;;;;;11.60;4.38;;;7.80;93.60;;;;;;5079062;28;20032;-74
2023/03/15 08:08:17;;;;;;;11.02;3.90;;;7.90;93.40;;;;;;5075293;28;20124;-73
2023/03/15 08:10:44;;;;;;;7.30;3.35;;;8.00;93.50;;;;;;5088647;28;20115;-73
2023/03/15 08:13:10;;;;;;;7.22;3.08;;;8.10;93.40;;;;;;5082317;28;20028;-73
2023/03/15 08:15:35;;;;;;;10.88;4.00;;;8.20;93.40;;;;;;5069894;28;20074;-73
2023/03/15 08:18:01;;;;;;;11.40;3.90;;;8.30;92.60;;;;;;5076706;28;20027;-74
2023/03/15 08:20:28;;;;;;;7.68;3.72;;;8.30;92.00;;;;;;5084216;28;20111;-74
2023/03/15 08:22:54;;;;;;;11.30;3.20;;;8.50;92.10;;;;;;5084474;28;20104;-73
2023/03/15 08:25:22;;;;;;;8.10;3.33;;;8.60;91.10;;;;;;5084682;28;20032;-73
2023/03/15 08:27:49;;;;;;;5.75;2.20;;;8.70;91.20;;;;;;5077870;28;20028;-72
2023/03/15 08:30:17;;;;;;;8.68;3.70;;;8.80;90.70;;;;;;5086212;28;20024;-72
2023/03/15 08:32:44;;;;;;;6.65;3.50;;;8.90;91.00;;;;;;5086282;28;20017;-73
2023/03/15 08:35:11;;;;;;;8.60;3.13;;;9.00;90.50;;;;;;5084068;28;20024;-71
2023/03/15 08:37:38;;;;;;;8.48;3.25;;;9.10;90.70;;;;;;5086281;28;20027;-72
2023/03/15 08:40:08;;;;;;;8.75;3.10;;;9.30;89.90;;;;;;5080330;28;20044;-73
2023/03/15 08:42:34;;;;;;;7.88;2.78;;;9.40;88.60;;;;;;5085595;28;20024;-73
2023/03/15 08:45:00;;;;;;;7.72;2.55;;;9.40;88.60;;;;;;5078656;28;20016;-73
2023/03/15 08:47:26;;;;;;;7.82;3.00;;;9.50;90.00;;;;;;5090077;28;20028;-74
2023/03/15 08:49:52;;;;;;;7.43;2.15;;;9.50;87.50;;;;;;5081466;28;20021;-73
2023/03/15 08:52:21;;;;;;;8.25;2.65;;;9.60;85.00;;;;;;5084851;28;20330;-73
2023/03/15 08:54:47;;;;;;;6.15;2.25;;;9.80;87.10;;;;;;5084258;28;20024;-73
2023/03/15 08:57:13;;;;;;;12.75;3.05;;;10.00;83.80;;;;;;5069949;28;20043;-72
2023/03/15 08:59:39;;;;;;;9.48;3.17;;;10.10;82.20;;;;;;5073567;28;20084;-73
2023/03/15 09:02:05;;;;;;;5.88;2.33;;;10.20;84.40;;;;;;5080315;28;20103;-72
2023/03/15 09:04:31;;;;;;;9.50;2.47;;;10.30;80.60;;;;;;5084719;28;20099;-72
2023/03/15 09:06:57;;;;;;;7.53;2.22;;;10.40;80.70;;;;;;5080868;28;20024;-73
2023/03/15 09:09:23;;;;;;;5.85;2.25;;;10.60;81.90;;;;;;5085107;28;20047;-73
2023/03/15 09:11:49;;;;;;;7.63;2.30;;;10.70;80.60;;;;;;5074242;28;20017;-74
2023/03/15 09:14:14;;;;;;;6.30;2.03;;;10.70;78.40;;;;;;5080566;28;20024;-73
2023/03/15 09:16:40;;;;;;;12.73;3.28;;;10.80;77.90;;;;;;5088298;28;20027;-74
2023/03/15 09:19:05;;;;;;;7.30;1.65;;;10.90;77.40;;;;;;5079822;28;20032;-72
2023/03/15 09:21:31;;;;;;;8.38;2.42;;;11.20;75.60;;;;;;5088021;28;20028;-74
2023/03/15 09:23:57;;;;;;;8.93;2.25;;;11.30;72.20;;;;;;5082144;28;20357;-73
2023/03/15 09:26:23;;;;;;;10.73;1.92;;;11.30;69.10;;;;;;5080372;28;20474;-74
2023/03/15 09:28:48;;;;;;;10.55;2.00;;;11.50;70.40;;;;;;5073799;28;20116;-72
2023/03/15 09:31:14;;;;;;;9.38;2.10;;;11.60;70.90;;;;;;5078574;28;20099;-72
2023/03/15 09:33:39;;;;;;;10.35;1.67;;;11.70;68.60;;;;;;5077757;28;20039;-73
2023/03/15 09:36:06;;;;;;;5.95;1.52;;;11.70;69.50;;;;;;5078676;28;20100;-72
2023/03/15 09:38:31;;;;;;;2.45;1.10;;;11.80;68.30;;;;;;5084300;28;20444;-74
2023/03/15 09:41:02;;;;;;;5.30;1.23;;;11.90;73.60;;;;;;5085075;28;20024;-73
2023/03/15 09:43:50;;;;;;;8.38;1.75;;;12.00;68.50;;;;;;5087250;28;20020;-74
2023/03/15 09:46:38;;;;;;;9.25;2.00;;;12.20;67.00;;;;;;5084315;28;20498;-73
2023/03/15 09:49:15;;;;;;;6.20;1.65;;;12.30;67.40;;;;;;5069592;28;20498;-73
2023/03/15 09:51:53;;;;;;;10.88;2.28;;;12.30;65.70;;;;;;5076586;28;20046;-73
2023/03/15 09:54:40;;;;;;;6.20;2.15;;;12.30;67.50;;;;;;5084668;28;20911;-72
2023/03/15 09:57:16;;;;;;;8.68;1.38;;;12.50;65.10;;;;;;5074422;28;20027;-73
2023/03/15 09:59:45;;;;;;;6.72;2.10;;;12.60;62.50;;;;;;5072630;28;20471;-72
2023/03/15 10:02:30;;;;;;;6.78;1.65;;;12.50;61.80;;;;;;5077176;28;20467;-73
2023/03/15 10:05:08;;;;;;;11.38;2.00;;;12.50;60.20;;;;;;5074149;28;20618;-72
2023/03/15 10:07:34;;;;;;;6.05;1.10;;;12.40;60.80;;;;;;5075473;28;20083;-72
2023/03/15 10:10:03;;;;;;;5.75;1.80;;;12.50;60.20;;;;;;5068318;28;20098;-72
2023/03/15 10:12:42;;;;;;;5.97;1.48;;;12.50;59.80;;;;;;5071762;28;20025;-72
2023/03/15 10:15:39;;;;;;;7.97;2.25;;;12.40;59.80;;;;;;5080414;28;20385;-74
2023/03/15 10:18:26;;;;;;;7.07;1.65;;;12.50;60.60;;;;;;5084500;28;20020;-72
2023/03/15 10:21:15;;;;;;;10.38;3.08;;;12.70;61.10;;;;;;5073552;28;20078;-72
2023/03/15 10:23:51;;;;;;;8.75;2.45;;;12.90;61.20;;;;;;5077948;28;20134;-72
2023/03/15 10:26:23;;;;;;;5.53;1.60;;;13.00;60.20;;;;;;5069432;28;20057;-73
2023/03/15 10:28:50;;;;;;;9.68;2.22;;;13.10;57.20;;;;;;5079650;28;20050;-73
2023/03/15 10:31:21;;;;;;;6.45;2.13;;;13.20;57.60;;;;;;5069484;28;20028;-72
2023/03/15 10:33:48;;;;;;;6.75;1.83;;;13.30;58.50;;;;;;5075250;28;20013;-74
2023/03/15 10:36:19;;;;;;;8.27;1.95;;;13.10;60.00;;;;;;5079589;28;20013;-73
2023/03/15 10:38:45;;;;;;;7.18;2.00;;;12.80;60.30;;;;;;5070379;28;20040;-73
2023/03/15 10:41:13;;;;;;;5.32;1.85;;;12.80;59.20;;;;;;5078549;28;20043;-73
2023/03/15 10:43:40;;;;;;;6.63;1.70;;;12.80;59.40;;;;;;5085705;28;20081;-73
2023/03/15 10:46:34;;;;;;;6.47;1.58;;;12.60;56.90;;;;;;5078866;28;20037;-73
2023/03/15 10:49:16;;;;;;;7.47;1.80;;;12.50;56.10;;;;;;5079458;28;20547;-73
2023/03/15 10:51:47;;;;;;;6.18;1.50;;;12.70;57.70;;;;;;5072212;28;20024;-73
2023/03/15 10:54:21;;;;;;;7.13;1.65;;;12.70;56.60;;;;;;5079083;28;20860;-72
2023/03/15 10:57:12;;;;;;;6.70;1.50;;;12.70;59.00;;;;;;5082571;28;20158;-73
2023/03/15 10:59:51;;;;;;;;;;;12.70;56.70;;;;;;5074995;28;20083;-74
2023/03/15 11:02:21;;;;;;;8.85;2.85;;;12.70;57.00;;;;;;5076952;28;19916;-73
2023/03/15 11:05:22;;;;;;;6.57;1.80;;;12.80;57.10;;;;;;5076178;28;20020;-73
2023/03/15 11:07:57;;;;;;;8.30;1.83;;;12.90;57.60;;;;;;5040923;28;20271;-73
2023/03/15 11:10:25;;;;;;;10.10;1.88;;;13.10;57.40;;;;;;5087190;28;20028;-73
2023/03/15 11:13:12;;;;;;;6.60;2.13;;;13.10;55.10;;;;;;5072062;28;20029;-72
2023/03/15 11:15:45;;;;;;;8.23;1.90;;;13.10;54.40;;;;;;5082099;28;20744;-72
2023/03/15 11:18:17;;;;;;;7.05;1.70;;;13.10;52.90;;;;;;5085553;28;20085;-73
2023/03/15 11:20:44;;;;;;;8.02;1.60;;;13.10;53.50;;;;;;5081304;28;20478;-72
2023/03/15 11:23:19;;;;;;;10.88;2.22;;;13.20;53.00;;;;;;5073477;28;20107;-71
2023/03/15 11:25:45;;;;;;;7.82;1.90;;;13.40;53.00;;;;;;5078536;28;20031;-73
2023/03/15 11:28:17;;;;;;;9.25;1.83;;;13.60;53.00;;;;;;5082758;28;20020;-71
2023/03/15 11:30:44;;;;;;;6.90;1.77;;;13.90;52.90;;;;;;5068492;28;20016;-73
2023/03/15 11:33:24;;;;;;;6.93;2.28;;;13.90;50.40;;;;;;5067976;28;20028;-73
2023/03/15 11:35:51;;;;;;;5.85;2.15;;;13.90;51.70;;;;;;5069160;28;20029;-73
2023/03/15 11:38:36;;;;;;;5.72;1.88;;;14.00;48.80;;;;;;5080451;28;20020;-74
2023/03/15 11:41:17;;;;;;;7.22;1.67;;;14.10;53.00;;;;;;5074329;28;20032;-73
2023/03/15 11:44:00;;;;;;;5.30;1.50;;;14.10;48.10;;;;;;5072572;28;20048;-73
2023/03/15 11:46:31;;;;;;;10.23;1.52;;;14.00;46.50;;;;;;5076422;28;20028;-73
2023/03/15 11:49:11;;;;;;;8.15;1.65;;;14.00;45.90;;;;;;5070748;28;20024;-72
2023/03/15 11:51:36;;;;;;;7.53;1.90;;;14.10;48.30;;;;;;5085838;28;20016;-73
2023/03/15 11:54:11;;;;;;;7.38;1.70;;;14.10;48.20;;;;;;5082276;28;20376;-74
2023/03/15 11:56:43;;;;;;;6.45;1.40;;;14.10;48.20;;;;;;5084261;28;20032;-73
2023/03/15 11:59:24;;;;;;;7.75;2.00;;;14.00;49.20;;;;;;5079282;28;20031;-72
2023/03/15 12:02:20;;;;;;;7.07;1.65;;;13.90;47.20;;;;;;5082271;28;20013;-73
2023/03/15 12:04:49;;;;;;;6.97;1.38;;;13.80;46.70;;;;;;5078761;28;20562;-73
2023/03/15 12:07:18;;;;;;;6.80;1.23;;;13.70;46.90;;;;;;5080981;28;20078;-73
2023/03/15 12:10:02;;;;;;;6.68;1.77;;;13.90;58.00;;;;;;5077146;28;20045;-73
2023/03/15 12:12:28;;;;;;;8.20;2.38;;;14.10;50.00;;;;;;5071025;28;20020;-72
2023/03/15 12:15:18;;;;;;;8.90;1.75;;;14.00;46.20;;;;;;5085140;28;20386;-73
2023/03/15 12:17:59;;;;;;;5.50;1.30;;;14.00;48.10;;;;;;5073477;28;20031;-73
2023/03/15 12:20:40;;;;;;;6.30;1.45;;;14.10;46.80;;;;;;5080712;28;20106;-73
2023/03/15 12:23:17;;;;;;;6.10;1.40;;;14.10;45.40;;;;;;5075666;28;20025;-74
2023/03/15 12:26:17;;;;;;;5.40;1.15;;;14.20;45.90;;;;;;5071204;28;20418;-72
2023/03/15 12:29:00;;;;;;;8.30;2.05;;;14.30;46.10;;;;;;5048918;28;20046;-75
2023/03/15 12:31:42;;;;;;;5.18;1.35;;;14.40;44.70;;;;;;5082288;28;20016;-73
2023/03/15 12:34:20;;;;;;;6.22;1.42;;;14.40;43.60;;;;;;5077657;28;20046;-74
2023/03/15 12:36:48;;;;;;;4.65;1.15;;;14.50;47.10;;;;;;5073966;28;20032;-72
2023/03/15 12:39:16;;;;;;;4.18;0.82;;;14.80;46.00;;;;;;5076602;28;20036;-72
2023/03/15 12:41:48;;;;;;;4.10;0.90;;;15.00;48.00;;;;;;5072746;28;20024;-73
2023/03/15 12:44:20;;;;;;;5.88;1.67;;;15.20;43.90;;;;;;5072832;28;20021;-77
2023/03/15 12:46:46;;;;;;;5.90;1.08;;;15.30;43.20;;;;;;5074428;28;20113;-73
2023/03/15 12:49:27;;;;;;;6.38;2.13;;;15.40;43.70;;;;;;5073960;28;20051;-74
2023/03/15 12:52:01;;;;;;;3.25;1.23;;;15.40;42.00;;;;;;5070106;28;20465;-74
2023/03/15 12:54:53;;;;;;;6.10;1.15;;;15.50;47.50;;;;;;5071506;28;20081;-73